Terminal Aerodrome Forecast
Issued by NWS

Home | Current Version | Previous Version | Text Only | Print | Product List | Glossary On
Versions: 1 2 3 4 5 6 7 8 9 10 11 12 13 14 15 16 17 18 19 20 21 22 23 24 25 26
000
FTUS44 KFWD 041137
TAFFTW
TAF
KFTW 041137Z 0412/0512 18010KT P6SM BKN015
     FM041500 17014KT P6SM BKN025
     FM041700 17015KT P6SM BKN040
     FM050300 16014KT P6SM BKN100
     FM051000 15013KT P6SM BKN015=

USA.gov is the U.S. government's official web portal to all federal, state and local government web resources and services.